sensor_id;sensor_type;location;lat;lon;timestamp;temperature;humidity
2407;DHT22;37709;53.480;9.688;2023-03-07T00:00:47;0.80;99.90
2407;DHT22;37709;53.480;9.688;2023-03-07T00:03:16;0.80;99.90
2407;DHT22;37709;53.480;9.688;2023-03-07T00:05:43;0.80;99.90
2407;DHT22;37709;53.480;9.688;2023-03-07T00:08:11;0.80;99.90
2407;DHT22;37709;53.480;9.688;2023-03-07T00:10:38;0.80;99.90
2407;DHT22;37709;53.480;9.688;2023-03-07T00:13:06;0.80;99.90
2407;DHT22;37709;53.480;9.688;2023-03-07T00:15:33;0.80;99.90
2407;DHT22;37709;53.480;9.688;2023-03-07T00:18:00;0.80;99.90
2407;DHT22;37709;53.480;9.688;2023-03-07T00:20:27;0.80;99.90
2407;DHT22;37709;53.480;9.688;2023-03-07T00:22:54;0.80;99.90
2407;DHT22;37709;53.480;9.688;2023-03-07T00:25:22;0.80;99.90
2407;DHT22;37709;53.480;9.688;2023-03-07T00:27:49;0.90;99.90
2407;DHT22;37709;53.480;9.688;2023-03-07T00:30:16;0.90;99.90
2407;DHT22;37709;53.480;9.688;2023-03-07T00:32:44;0.90;99.90
2407;DHT22;37709;53.480;9.688;2023-03-07T00:35:11;0.90;99.90
2407;DHT22;37709;53.480;9.688;2023-03-07T00:37:39;0.90;99.90
2407;DHT22;37709;53.480;9.688;2023-03-07T00:40:06;0.90;99.90
2407;DHT22;37709;53.480;9.688;2023-03-07T00:42:35;0.90;99.90
2407;DHT22;37709;53.480;9.688;2023-03-07T00:45:02;1.00;99.90
2407;DHT22;37709;53.480;9.688;2023-03-07T00:47:30;1.00;99.90
2407;DHT22;37709;53.480;9.688;2023-03-07T00:49:57;1.00;99.90
2407;DHT22;37709;53.480;9.688;2023-03-07T00:52:24;1.00;99.90
2407;DHT22;37709;53.480;9.688;2023-03-07T00:54:52;1.00;99.90
2407;DHT22;37709;53.480;9.688;2023-03-07T00:57:20;1.00;99.90
2407;DHT22;37709;53.480;9.688;2023-03-07T00:59:47;1.00;99.90
2407;DHT22;37709;53.480;9.688;2023-03-07T01:02:15;1.00;99.90
2407;DHT22;37709;53.480;9.688;2023-03-07T01:04:42;1.10;99.90
2407;DHT22;37709;53.480;9.688;2023-03-07T01:07:09;1.10;99.90
2407;DHT22;37709;53.480;9.688;2023-03-07T01:09:37;1.10;99.90
2407;DHT22;37709;53.480;9.688;2023-03-07T01:12:05;1.10;99.90
2407;DHT22;37709;53.480;9.688;2023-03-07T01:14:33;1.20;99.90
2407;DHT22;37709;53.480;9.688;2023-03-07T01:17:00;1.20;99.90
2407;DHT22;37709;53.480;9.688;2023-03-07T01:19:28;1.30;99.90
2407;DHT22;37709;53.480;9.688;2023-03-07T01:21:56;1.30;99.90
2407;DHT22;37709;53.480;9.688;2023-03-07T01:24:23;1.30;99.90
2407;DHT22;37709;53.480;9.688;2023-03-07T01:26:51;1.30;99.90
2407;DHT22;37709;53.480;9.688;2023-03-07T01:29:19;1.30;99.90
2407;DHT22;37709;53.480;9.688;2023-03-07T01:31:46;1.30;99.90
2407;DHT22;37709;53.480;9.688;2023-03-07T01:34:14;1.30;99.90
2407;DHT22;37709;53.480;9.688;2023-03-07T01:36:41;1.30;99.90
2407;DHT22;37709;53.480;9.688;2023-03-07T01:39:13;1.20;99.90
2407;DHT22;37709;53.480;9.688;2023-03-07T01:41:46;1.20;99.90
2407;DHT22;37709;53.480;9.688;2023-03-07T01:44:18;1.20;99.90
2407;DHT22;37709;53.480;9.688;2023-03-07T01:47:04;1.20;99.90
2407;DHT22;37709;53.480;9.688;2023-03-07T01:49:45;1.10;99.90
2407;DHT22;37709;53.480;9.688;2023-03-07T01:52:22;1.20;99.90
2407;DHT22;37709;53.480;9.688;2023-03-07T01:54:59;1.20;99.90
2407;DHT22;37709;53.480;9.688;2023-03-07T01:57:32;1.30;99.90
2407;DHT22;37709;53.480;9.688;2023-03-07T02:00:04;1.30;99.90
2407;DHT22;37709;53.480;9.688;2023-03-07T02:02:42;1.40;99.90
2407;DHT22;37709;53.480;9.688;2023-03-07T02:05:31;1.30;99.90
2407;DHT22;37709;53.480;9.688;2023-03-07T02:08:01;1.40;99.90
2407;DHT22;37709;53.480;9.688;2023-03-07T02:10:32;1.40;99.90
2407;DHT22;37709;53.480;9.688;2023-03-07T02:13:00;1.40;99.90
2407;DHT22;37709;53.480;9.688;2023-03-07T02:15:29;1.40;99.90
2407;DHT22;37709;53.480;9.688;2023-03-07T02:17:57;1.40;99.90
2407;DHT22;37709;53.480;9.688;2023-03-07T02:22:57;1.40;99.90
2407;DHT22;37709;53.480;9.688;2023-03-07T02:28:26;1.40;99.90
2407;DHT22;37709;53.480;9.688;2023-03-07T02:30:56;1.40;99.90
2407;DHT22;37709;53.480;9.688;2023-03-07T02:33:26;1.40;99.90
2407;DHT22;37709;53.480;9.688;2023-03-07T02:36:12;1.50;99.90
2407;DHT22;37709;53.480;9.688;2023-03-07T02:38:49;1.50;99.90
2407;DHT22;37709;53.480;9.688;2023-03-07T02:41:21;1.50;99.90
2407;DHT22;37709;53.480;9.688;2023-03-07T02:43:50;1.60;99.90
2407;DHT22;37709;53.480;9.688;2023-03-07T02:46:17;1.60;99.90
2407;DHT22;37709;53.480;9.688;2023-03-07T02:48:46;1.60;99.90
2407;DHT22;37709;53.480;9.688;2023-03-07T02:51:13;1.60;99.90
2407;DHT22;37709;53.480;9.688;2023-03-07T02:53:43;1.70;99.90
2407;DHT22;37709;53.480;9.688;2023-03-07T02:56:12;1.70;99.90
2407;DHT22;37709;53.480;9.688;2023-03-07T02:58:41;1.70;99.90
2407;DHT22;37709;53.480;9.688;2023-03-07T03:01:09;1.70;99.90
2407;DHT22;37709;53.480;9.688;2023-03-07T03:03:37;1.70;99.90
2407;DHT22;37709;53.480;9.688;2023-03-07T03:06:04;1.70;99.90
2407;DHT22;37709;53.480;9.688;2023-03-07T03:08:31;1.70;99.90
2407;DHT22;37709;53.480;9.688;2023-03-07T03:11:01;1.70;99.90
2407;DHT22;37709;53.480;9.688;2023-03-07T03:13:28;1.80;99.90
2407;DHT22;37709;53.480;9.688;2023-03-07T03:15:57;1.80;99.90
2407;DHT22;37709;53.480;9.688;2023-03-07T03:18:29;1.80;99.90
2407;DHT22;37709;53.480;9.688;2023-03-07T03:20:58;1.70;99.90
2407;DHT22;37709;53.480;9.688;2023-03-07T03:23:26;1.70;99.90
2407;DHT22;37709;53.480;9.688;2023-03-07T03:26:02;1.70;99.90
2407;DHT22;37709;53.480;9.688;2023-03-07T03:28:33;1.70;99.90
2407;DHT22;37709;53.480;9.688;2023-03-07T03:31:06;1.80;99.90
2407;DHT22;37709;53.480;9.688;2023-03-07T03:33:35;1.70;99.90
2407;DHT22;37709;53.480;9.688;2023-03-07T03:36:09;1.80;99.90
2407;DHT22;37709;53.480;9.688;2023-03-07T03:38:37;1.90;99.90
2407;DHT22;37709;53.480;9.688;2023-03-07T03:41:10;2.00;99.90
2407;DHT22;37709;53.480;9.688;2023-03-07T03:43:39;2.00;99.90
2407;DHT22;37709;53.480;9.688;2023-03-07T03:46:06;1.90;99.90
2407;DHT22;37709;53.480;9.688;2023-03-07T03:48:35;1.90;99.90
2407;DHT22;37709;53.480;9.688;2023-03-07T03:51:06;1.90;99.90
2407;DHT22;37709;53.480;9.688;2023-03-07T03:53:35;1.90;99.90
2407;DHT22;37709;53.480;9.688;2023-03-07T03:56:06;1.90;99.90
2407;DHT22;37709;53.480;9.688;2023-03-07T03:58:34;1.90;99.90
2407;DHT22;37709;53.480;9.688;2023-03-07T04:01:03;1.90;99.90
2407;DHT22;37709;53.480;9.688;2023-03-07T04:03:36;2.00;99.90
2407;DHT22;37709;53.480;9.688;2023-03-07T04:06:06;2.00;99.90
2407;DHT22;37709;53.480;9.688;2023-03-07T04:08:34;2.00;99.90
2407;DHT22;37709;53.480;9.688;2023-03-07T04:11:02;2.00;99.90
2407;DHT22;37709;53.480;9.688;2023-03-07T04:13:32;2.00;99.90
2407;DHT22;37709;53.480;9.688;2023-03-07T04:15:59;2.00;99.90
2407;DHT22;37709;53.480;9.688;2023-03-07T04:18:27;2.00;99.90
2407;DHT22;37709;53.480;9.688;2023-03-07T04:20:54;1.90;99.90
2407;DHT22;37709;53.480;9.688;2023-03-07T04:23:23;1.90;99.90
2407;DHT22;37709;53.480;9.688;2023-03-07T04:25:53;2.00;99.90
2407;DHT22;37709;53.480;9.688;2023-03-07T04:28:26;2.10;99.90
2407;DHT22;37709;53.480;9.688;2023-03-07T04:30:58;2.10;99.90
2407;DHT22;37709;53.480;9.688;2023-03-07T04:33:29;2.20;99.90
2407;DHT22;37709;53.480;9.688;2023-03-07T04:35:56;2.20;99.90
2407;DHT22;37709;53.480;9.688;2023-03-07T04:38:24;2.20;99.90
2407;DHT22;37709;53.480;9.688;2023-03-07T04:40:51;2.20;99.90
2407;DHT22;37709;53.480;9.688;2023-03-07T04:43:19;2.20;99.90
2407;DHT22;37709;53.480;9.688;2023-03-07T04:45:47;2.20;99.90
2407;DHT22;37709;53.480;9.688;2023-03-07T04:48:15;2.20;99.90
2407;DHT22;37709;53.480;9.688;2023-03-07T04:50:42;2.30;99.90
2407;DHT22;37709;53.480;9.688;2023-03-07T04:53:09;2.30;99.90
2407;DHT22;37709;53.480;9.688;2023-03-07T04:55:37;2.30;99.90
2407;DHT22;37709;53.480;9.688;2023-03-07T04:58:04;2.30;99.90
2407;DHT22;37709;53.480;9.688;2023-03-07T05:00:35;2.20;99.90
2407;DHT22;37709;53.480;9.688;2023-03-07T05:03:02;2.10;99.90
2407;DHT22;37709;53.480;9.688;2023-03-07T05:05:31;2.00;99.90
2407;DHT22;37709;53.480;9.688;2023-03-07T05:07:59;2.10;99.90
2407;DHT22;37709;53.480;9.688;2023-03-07T05:10:26;2.00;99.90
2407;DHT22;37709;53.480;9.688;2023-03-07T05:12:54;2.10;99.90
2407;DHT22;37709;53.480;9.688;2023-03-07T05:15:21;2.00;99.90
2407;DHT22;37709;53.480;9.688;2023-03-07T05:17:49;2.10;99.90
2407;DHT22;37709;53.480;9.688;2023-03-07T05:20:16;2.10;99.90
2407;DHT22;37709;53.480;9.688;2023-03-07T05:22:45;2.10;99.90
2407;DHT22;37709;53.480;9.688;2023-03-07T05:25:13;2.10;99.90
2407;DHT22;37709;53.480;9.688;2023-03-07T05:27:41;2.20;99.90
2407;DHT22;37709;53.480;9.688;2023-03-07T05:30:10;2.20;99.90
2407;DHT22;37709;53.480;9.688;2023-03-07T05:32:37;2.10;99.90
2407;DHT22;37709;53.480;9.688;2023-03-07T05:35:05;2.10;99.90
2407;DHT22;37709;53.480;9.688;2023-03-07T05:37:33;2.20;99.90
2407;DHT22;37709;53.480;9.688;2023-03-07T05:40:01;2.10;99.90
2407;DHT22;37709;53.480;9.688;2023-03-07T05:42:28;2.10;99.90
2407;DHT22;37709;53.480;9.688;2023-03-07T05:44:56;2.20;99.90
2407;DHT22;37709;53.480;9.688;2023-03-07T05:47:23;2.10;99.90
2407;DHT22;37709;53.480;9.688;2023-03-07T05:49:51;2.10;99.90
2407;DHT22;37709;53.480;9.688;2023-03-07T05:52:18;2.20;99.90
2407;DHT22;37709;53.480;9.688;2023-03-07T05:54:46;2.20;99.90
2407;DHT22;37709;53.480;9.688;2023-03-07T05:57:17;2.20;99.90
2407;DHT22;37709;53.480;9.688;2023-03-07T05:59:45;2.20;99.90
2407;DHT22;37709;53.480;9.688;2023-03-07T06:02:13;2.20;99.90
2407;DHT22;37709;53.480;9.688;2023-03-07T06:04:40;2.20;99.90
2407;DHT22;37709;53.480;9.688;2023-03-07T06:07:07;2.10;99.90
2407;DHT22;37709;53.480;9.688;2023-03-07T06:09:35;2.20;99.90
2407;DHT22;37709;53.480;9.688;2023-03-07T06:12:03;2.20;99.90
2407;DHT22;37709;53.480;9.688;2023-03-07T06:14:31;2.10;99.90
2407;DHT22;37709;53.480;9.688;2023-03-07T06:16:58;2.10;99.90
2407;DHT22;37709;53.480;9.688;2023-03-07T06:19:28;2.20;99.90
2407;DHT22;37709;53.480;9.688;2023-03-07T06:21:56;2.30;99.90
2407;DHT22;37709;53.480;9.688;2023-03-07T06:24:23;2.40;99.90
2407;DHT22;37709;53.480;9.688;2023-03-07T06:26:50;2.50;99.90
2407;DHT22;37709;53.480;9.688;2023-03-07T06:29:20;2.60;99.90
2407;DHT22;37709;53.480;9.688;2023-03-07T06:31:48;2.70;99.90
2407;DHT22;37709;53.480;9.688;2023-03-07T06:34:16;2.70;99.90
2407;DHT22;37709;53.480;9.688;2023-03-07T06:36:45;2.70;99.90
2407;DHT22;37709;53.480;9.688;2023-03-07T06:39:12;2.80;99.90
2407;DHT22;37709;53.480;9.688;2023-03-07T06:41:42;2.80;99.90
2407;DHT22;37709;53.480;9.688;2023-03-07T06:44:10;2.80;99.90
2407;DHT22;37709;53.480;9.688;2023-03-07T06:46:37;2.80;99.90
2407;DHT22;37709;53.480;9.688;2023-03-07T06:49:11;2.80;99.90
2407;DHT22;37709;53.480;9.688;2023-03-07T06:51:38;2.90;99.90
2407;DHT22;37709;53.480;9.688;2023-03-07T06:54:07;2.90;99.90
2407;DHT22;37709;53.480;9.688;2023-03-07T06:56:34;2.90;99.90
2407;DHT22;37709;53.480;9.688;2023-03-07T06:59:02;2.80;99.90
2407;DHT22;37709;53.480;9.688;2023-03-07T07:01:29;3.00;99.90
2407;DHT22;37709;53.480;9.688;2023-03-07T07:03:59;3.20;99.90
2407;DHT22;37709;53.480;9.688;2023-03-07T07:06:27;3.20;99.90
2407;DHT22;37709;53.480;9.688;2023-03-07T07:08:56;3.30;99.90
2407;DHT22;37709;53.480;9.688;2023-03-07T07:11:26;3.30;99.90
2407;DHT22;37709;53.480;9.688;2023-03-07T07:13:54;3.40;99.90
2407;DHT22;37709;53.480;9.688;2023-03-07T07:16:22;3.50;99.90
2407;DHT22;37709;53.480;9.688;2023-03-07T07:18:50;3.40;99.90
2407;DHT22;37709;53.480;9.688;2023-03-07T07:21:19;3.50;99.90
2407;DHT22;37709;53.480;9.688;2023-03-07T07:23:47;3.70;99.90
2407;DHT22;37709;53.480;9.688;2023-03-07T07:26:15;3.80;99.90
2407;DHT22;37709;53.480;9.688;2023-03-07T07:28:42;3.80;99.90
2407;DHT22;37709;53.480;9.688;2023-03-07T07:31:09;3.90;99.90
2407;DHT22;37709;53.480;9.688;2023-03-07T07:33:37;3.80;99.90
2407;DHT22;37709;53.480;9.688;2023-03-07T07:36:06;4.00;99.90
2407;DHT22;37709;53.480;9.688;2023-03-07T07:38:35;4.10;99.90
2407;DHT22;37709;53.480;9.688;2023-03-07T07:41:05;4.40;99.90
2407;DHT22;37709;53.480;9.688;2023-03-07T07:43:33;4.60;99.90
2407;DHT22;37709;53.480;9.688;2023-03-07T07:46:17;4.90;99.90
2407;DHT22;37709;53.480;9.688;2023-03-07T07:48:48;5.40;99.90
2407;DHT22;37709;53.480;9.688;2023-03-07T07:51:15;5.20;99.90
2407;DHT22;37709;53.480;9.688;2023-03-07T07:53:43;5.00;99.90
2407;DHT22;37709;53.480;9.688;2023-03-07T07:56:11;5.20;99.90
2407;DHT22;37709;53.480;9.688;2023-03-07T07:58:39;5.10;99.90
2407;DHT22;37709;53.480;9.688;2023-03-07T08:01:18;5.00;99.90
2407;DHT22;37709;53.480;9.688;2023-03-07T08:03:49;5.00;99.90
2407;DHT22;37709;53.480;9.688;2023-03-07T08:06:24;4.80;99.90
2407;DHT22;37709;53.480;9.688;2023-03-07T08:08:53;5.00;99.90
2407;DHT22;37709;53.480;9.688;2023-03-07T08:11:21;5.00;99.90
2407;DHT22;37709;53.480;9.688;2023-03-07T08:13:49;5.20;99.90
2407;DHT22;37709;53.480;9.688;2023-03-07T08:16:18;5.10;99.90
2407;DHT22;37709;53.480;9.688;2023-03-07T08:18:53;4.90;99.90
2407;DHT22;37709;53.480;9.688;2023-03-07T08:21:22;4.90;99.90
2407;DHT22;37709;53.480;9.688;2023-03-07T08:23:50;4.90;99.90
2407;DHT22;37709;53.480;9.688;2023-03-07T08:26:20;4.90;99.90
2407;DHT22;37709;53.480;9.688;2023-03-07T08:28:47;4.80;99.90
2407;DHT22;37709;53.480;9.688;2023-03-07T08:31:20;4.90;99.90
2407;DHT22;37709;53.480;9.688;2023-03-07T08:33:50;5.00;99.90
2407;DHT22;37709;53.480;9.688;2023-03-07T08:36:18;5.00;99.90
2407;DHT22;37709;53.480;9.688;2023-03-07T08:38:50;4.80;99.90
2407;DHT22;37709;53.480;9.688;2023-03-07T08:41:19;4.60;99.90
2407;DHT22;37709;53.480;9.688;2023-03-07T08:43:46;4.60;99.90
2407;DHT22;37709;53.480;9.688;2023-03-07T08:46:15;4.60;99.90
2407;DHT22;37709;53.480;9.688;2023-03-07T08:48:42;4.70;99.90
2407;DHT22;37709;53.480;9.688;2023-03-07T08:51:12;4.60;99.90
2407;DHT22;37709;53.480;9.688;2023-03-07T08:53:41;4.70;99.90
2407;DHT22;37709;53.480;9.688;2023-03-07T08:56:13;4.70;99.90
2407;DHT22;37709;53.480;9.688;2023-03-07T08:58:41;4.70;99.90
2407;DHT22;37709;53.480;9.688;2023-03-07T09:01:08;4.70;99.90
2407;DHT22;37709;53.480;9.688;2023-03-07T09:03:36;4.70;99.90
2407;DHT22;37709;53.480;9.688;2023-03-07T09:06:04;4.70;99.90
2407;DHT22;37709;53.480;9.688;2023-03-07T09:08:32;4.80;99.90
2407;DHT22;37709;53.480;9.688;2023-03-07T09:11:00;5.00;99.90
2407;DHT22;37709;53.480;9.688;2023-03-07T09:13:29;5.10;99.90
2407;DHT22;37709;53.480;9.688;2023-03-07T09:16:04;4.80;99.90
2407;DHT22;37709;53.480;9.688;2023-03-07T09:18:32;5.00;99.90
2407;DHT22;37709;53.480;9.688;2023-03-07T09:21:01;5.40;99.90
2407;DHT22;37709;53.480;9.688;2023-03-07T09:23:30;5.60;99.90
2407;DHT22;37709;53.480;9.688;2023-03-07T09:25:59;5.60;99.90
2407;DHT22;37709;53.480;9.688;2023-03-07T09:28:27;5.60;99.90
2407;DHT22;37709;53.480;9.688;2023-03-07T09:30:54;5.60;99.90
2407;DHT22;37709;53.480;9.688;2023-03-07T09:33:22;6.00;99.90
2407;DHT22;37709;53.480;9.688;2023-03-07T09:35:49;6.00;99.90
2407;DHT22;37709;53.480;9.688;2023-03-07T09:38:16;5.70;99.90
2407;DHT22;37709;53.480;9.688;2023-03-07T09:40:46;5.80;99.90
2407;DHT22;37709;53.480;9.688;2023-03-07T09:43:21;5.50;99.90
2407;DHT22;37709;53.480;9.688;2023-03-07T09:49:09;4.60;99.90
2407;DHT22;37709;53.480;9.688;2023-03-07T09:51:40;4.00;99.90
2407;DHT22;37709;53.480;9.688;2023-03-07T09:54:17;3.60;99.90
2407;DHT22;37709;53.480;9.688;2023-03-07T09:56:56;3.30;99.90
2407;DHT22;37709;53.480;9.688;2023-03-07T09:59:38;3.00;99.90
2407;DHT22;37709;53.480;9.688;2023-03-07T10:02:20;3.20;99.90
2407;DHT22;37709;53.480;9.688;2023-03-07T10:07:34;3.20;99.90
2407;DHT22;37709;53.480;9.688;2023-03-07T10:10:06;2.90;99.90
2407;DHT22;37709;53.480;9.688;2023-03-07T10:13:08;2.70;99.90
2407;DHT22;37709;53.480;9.688;2023-03-07T10:18:20;1.60;99.90
2407;DHT22;37709;53.480;9.688;2023-03-07T10:21:12;1.40;99.90
2407;DHT22;37709;53.480;9.688;2023-03-07T10:26:23;3.00;99.90
2407;DHT22;37709;53.480;9.688;2023-03-07T10:28:51;3.90;99.90
2407;DHT22;37709;53.480;9.688;2023-03-07T10:31:31;4.50;99.90
2407;DHT22;37709;53.480;9.688;2023-03-07T10:34:11;5.00;99.90
2407;DHT22;37709;53.480;9.688;2023-03-07T10:39:51;6.10;99.90
2407;DHT22;37709;53.480;9.688;2023-03-07T10:42:21;7.20;99.90
2407;DHT22;37709;53.480;9.688;2023-03-07T10:44:50;8.20;99.90
2407;DHT22;37709;53.480;9.688;2023-03-07T10:47:21;9.30;99.90
2407;DHT22;37709;53.480;9.688;2023-03-07T10:49:51;9.20;99.90
2407;DHT22;37709;53.480;9.688;2023-03-07T10:52:51;8.70;99.90
2407;DHT22;37709;53.480;9.688;2023-03-07T10:58:18;9.10;99.90
2407;DHT22;37709;53.480;9.688;2023-03-07T11:01:18;8.10;99.90
2407;DHT22;37709;53.480;9.688;2023-03-07T11:06:27;4.80;99.90
2407;DHT22;37709;53.480;9.688;2023-03-07T11:08:55;4.60;99.90
2407;DHT22;37709;53.480;9.688;2023-03-07T11:11:25;4.90;99.90
2407;DHT22;37709;53.480;9.688;2023-03-07T11:14:11;5.40;99.90
2407;DHT22;37709;53.480;9.688;2023-03-07T11:16:49;5.60;99.90
2407;DHT22;37709;53.480;9.688;2023-03-07T11:19:36;5.90;99.90
2407;DHT22;37709;53.480;9.688;2023-03-07T11:22:18;6.10;99.90
2407;DHT22;37709;53.480;9.688;2023-03-07T11:30:19;6.30;99.90
2407;DHT22;37709;53.480;9.688;2023-03-07T11:33:14;6.70;99.90
2407;DHT22;37709;53.480;9.688;2023-03-07T11:36:13;7.20;99.90
2407;DHT22;37709;53.480;9.688;2023-03-07T11:41:27;6.20;99.90
2407;DHT22;37709;53.480;9.688;2023-03-07T11:44:22;5.80;99.90
2407;DHT22;37709;53.480;9.688;2023-03-07T11:50:00;6.60;99.90
2407;DHT22;37709;53.480;9.688;2023-03-07T12:01:07;6.80;99.90
2407;DHT22;37709;53.480;9.688;2023-03-07T12:12:52;13.10;94.50
2407;DHT22;37709;53.480;9.688;2023-03-07T12:15:46;13.80;87.80
2407;DHT22;37709;53.480;9.688;2023-03-07T12:21:44;11.70;88.40
2407;DHT22;37709;53.480;9.688;2023-03-07T12:24:25;11.70;82.70
2407;DHT22;37709;53.480;9.688;2023-03-07T12:26:58;11.30;84.20
2407;DHT22;37709;53.480;9.688;2023-03-07T12:29:35;11.20;79.70
2407;DHT22;37709;53.480;9.688;2023-03-07T12:32:08;10.70;82.80
2407;DHT22;37709;53.480;9.688;2023-03-07T12:34:41;9.10;85.40
2407;DHT22;37709;53.480;9.688;2023-03-07T12:37:14;8.70;87.80
2407;DHT22;37709;53.480;9.688;2023-03-07T12:39:55;7.90;89.40
2407;DHT22;37709;53.480;9.688;2023-03-07T12:42:36;7.30;90.10
2407;DHT22;37709;53.480;9.688;2023-03-07T12:45:15;8.50;91.00
2407;DHT22;37709;53.480;9.688;2023-03-07T12:51:35;13.00;78.10
2407;DHT22;37709;53.480;9.688;2023-03-07T12:53:44;16.00;72.50
2407;DHT22;37709;53.480;9.688;2023-03-07T12:56:34;17.30;63.40
2407;DHT22;37709;53.480;9.688;2023-03-07T12:59:14;18.40;60.80
2407;DHT22;37709;53.480;9.688;2023-03-07T13:01:48;19.40;53.80
2407;DHT22;37709;53.480;9.688;2023-03-07T13:04:29;19.10;51.00
2407;DHT22;37709;53.480;9.688;2023-03-07T13:09:39;18.60;52.10
2407;DHT22;37709;53.480;9.688;2023-03-07T13:14:54;18.10;48.90
2407;DHT22;37709;53.480;9.688;2023-03-07T13:27:49;8.80;66.50
2407;DHT22;37709;53.480;9.688;2023-03-07T13:45:57;16.50;52.30
2407;DHT22;37709;53.480;9.688;2023-03-07T13:59:09;17.80;50.60
2407;DHT22;37709;53.480;9.688;2023-03-07T14:01:44;17.20;49.80
2407;DHT22;37709;53.480;9.688;2023-03-07T14:04:18;14.20;51.80
2407;DHT22;37709;53.480;9.688;2023-03-07T14:07:14;11.90;55.40
2407;DHT22;37709;53.480;9.688;2023-03-07T14:09:49;10.30;58.70
2407;DHT22;37709;53.480;9.688;2023-03-07T14:15:23;9.60;60.20
2407;DHT22;37709;53.480;9.688;2023-03-07T14:20:57;7.90;64.40
2407;DHT22;37709;53.480;9.688;2023-03-07T14:26:29;7.50;64.40
2407;DHT22;37709;53.480;9.688;2023-03-07T14:29:02;7.20;66.40
2407;DHT22;37709;53.480;9.688;2023-03-07T14:31:40;6.60;72.70
2407;DHT22;37709;53.480;9.688;2023-03-07T14:34:31;3.80;92.90
2407;DHT22;37709;53.480;9.688;2023-03-07T14:37:05;3.90;99.90
2407;DHT22;37709;53.480;9.688;2023-03-07T14:39:49;3.60;99.90
2407;DHT22;37709;53.480;9.688;2023-03-07T14:42:30;5.20;99.90
2407;DHT22;37709;53.480;9.688;2023-03-07T14:50:50;5.50;99.90
2407;DHT22;37709;53.480;9.688;2023-03-07T14:53:26;6.20;99.90
2407;DHT22;37709;53.480;9.688;2023-03-07T14:55:55;6.20;99.90
2407;DHT22;37709;53.480;9.688;2023-03-07T14:58:27;5.70;99.90
2407;DHT22;37709;53.480;9.688;2023-03-07T15:01:01;5.00;99.90
2407;DHT22;37709;53.480;9.688;2023-03-07T15:03:30;4.70;99.90
2407;DHT22;37709;53.480;9.688;2023-03-07T15:05:59;4.90;99.90
2407;DHT22;37709;53.480;9.688;2023-03-07T15:08:32;5.10;99.90
2407;DHT22;37709;53.480;9.688;2023-03-07T15:11:04;5.30;99.90
2407;DHT22;37709;53.480;9.688;2023-03-07T15:13:42;5.50;99.90
2407;DHT22;37709;53.480;9.688;2023-03-07T15:16:19;5.70;99.90
2407;DHT22;37709;53.480;9.688;2023-03-07T15:18:56;5.90;99.90
2407;DHT22;37709;53.480;9.688;2023-03-07T15:21:25;5.90;99.90
2407;DHT22;37709;53.480;9.688;2023-03-07T15:23:58;6.00;99.90
2407;DHT22;37709;53.480;9.688;2023-03-07T15:26:26;6.00;99.90
2407;DHT22;37709;53.480;9.688;2023-03-07T15:29:04;6.30;99.90
2407;DHT22;37709;53.480;9.688;2023-03-07T15:31:48;6.20;99.90
2407;DHT22;37709;53.480;9.688;2023-03-07T15:34:30;6.20;99.90
2407;DHT22;37709;53.480;9.688;2023-03-07T15:42:51;6.50;99.90
2407;DHT22;37709;53.480;9.688;2023-03-07T15:45:38;6.70;99.50
2407;DHT22;37709;53.480;9.688;2023-03-07T15:48:26;6.60;98.80
2407;DHT22;37709;53.480;9.688;2023-03-07T15:50:57;6.70;97.00
2407;DHT22;37709;53.480;9.688;2023-03-07T15:53:30;6.80;97.60
2407;DHT22;37709;53.480;9.688;2023-03-07T15:56:00;6.60;97.30
2407;DHT22;37709;53.480;9.688;2023-03-07T15:58:29;6.60;97.20
2407;DHT22;37709;53.480;9.688;2023-03-07T16:01:26;6.50;97.70
2407;DHT22;37709;53.480;9.688;2023-03-07T16:03:56;6.10;96.30
2407;DHT22;37709;53.480;9.688;2023-03-07T16:06:37;5.60;96.10
2407;DHT22;37709;53.480;9.688;2023-03-07T16:09:10;5.20;96.40
2407;DHT22;37709;53.480;9.688;2023-03-07T16:11:39;4.90;95.80
2407;DHT22;37709;53.480;9.688;2023-03-07T16:14:29;4.60;96.30
2407;DHT22;37709;53.480;9.688;2023-03-07T16:17:02;4.30;96.50
2407;DHT22;37709;53.480;9.688;2023-03-07T16:19:35;4.20;97.00
2407;DHT22;37709;53.480;9.688;2023-03-07T16:22:02;4.20;97.80
2407;DHT22;37709;53.480;9.688;2023-03-07T16:24:30;4.20;98.00
2407;DHT22;37709;53.480;9.688;2023-03-07T16:26:57;4.10;98.20
2407;DHT22;37709;53.480;9.688;2023-03-07T16:29:26;3.90;98.10
2407;DHT22;37709;53.480;9.688;2023-03-07T16:31:54;3.80;99.20
2407;DHT22;37709;53.480;9.688;2023-03-07T16:34:21;3.70;98.90
2407;DHT22;37709;53.480;9.688;2023-03-07T16:36:49;3.60;99.20
2407;DHT22;37709;53.480;9.688;2023-03-07T16:39:16;3.50;99.90
2407;DHT22;37709;53.480;9.688;2023-03-07T16:41:48;3.30;99.80
2407;DHT22;37709;53.480;9.688;2023-03-07T16:44:18;3.10;99.90
2407;DHT22;37709;53.480;9.688;2023-03-07T16:46:55;2.90;99.90
2407;DHT22;37709;53.480;9.688;2023-03-07T16:49:23;2.80;99.90
2407;DHT22;37709;53.480;9.688;2023-03-07T16:51:54;2.60;99.90
2407;DHT22;37709;53.480;9.688;2023-03-07T16:54:32;2.40;99.90
2407;DHT22;37709;53.480;9.688;2023-03-07T16:57:00;2.20;99.90
2407;DHT22;37709;53.480;9.688;2023-03-07T16:59:33;2.10;99.90
2407;DHT22;37709;53.480;9.688;2023-03-07T17:02:14;2.00;99.90
2407;DHT22;37709;53.480;9.688;2023-03-07T17:05:14;1.90;99.90
2407;DHT22;37709;53.480;9.688;2023-03-07T17:07:42;1.90;99.90
2407;DHT22;37709;53.480;9.688;2023-03-07T17:10:10;2.00;99.90
2407;DHT22;37709;53.480;9.688;2023-03-07T17:12:39;2.00;99.90
2407;DHT22;37709;53.480;9.688;2023-03-07T17:15:10;2.00;99.90
2407;DHT22;37709;53.480;9.688;2023-03-07T17:17:41;2.00;99.90
2407;DHT22;37709;53.480;9.688;2023-03-07T17:20:17;2.00;99.90
2407;DHT22;37709;53.480;9.688;2023-03-07T17:22:50;1.90;99.90
2407;DHT22;37709;53.480;9.688;2023-03-07T17:25:20;1.80;99.90
2407;DHT22;37709;53.480;9.688;2023-03-07T17:30:25;1.70;99.90
2407;DHT22;37709;53.480;9.688;2023-03-07T17:32:53;1.70;99.90
2407;DHT22;37709;53.480;9.688;2023-03-07T17:35:21;1.50;99.90
2407;DHT22;37709;53.480;9.688;2023-03-07T17:37:49;1.30;99.90
2407;DHT22;37709;53.480;9.688;2023-03-07T17:40:18;1.20;99.90
2407;DHT22;37709;53.480;9.688;2023-03-07T17:42:49;1.10;99.90
2407;DHT22;37709;53.480;9.688;2023-03-07T17:45:17;0.90;99.90
2407;DHT22;37709;53.480;9.688;2023-03-07T17:47:53;0.80;99.90
2407;DHT22;37709;53.480;9.688;2023-03-07T17:50:21;0.60;99.90
2407;DHT22;37709;53.480;9.688;2023-03-07T17:52:53;0.50;99.90
2407;DHT22;37709;53.480;9.688;2023-03-07T17:55:21;0.30;99.90
2407;DHT22;37709;53.480;9.688;2023-03-07T17:57:51;0.20;99.90
2407;DHT22;37709;53.480;9.688;2023-03-07T18:00:20;0.20;99.90
2407;DHT22;37709;53.480;9.688;2023-03-07T18:02:47;0.10;99.90
2407;DHT22;37709;53.480;9.688;2023-03-07T18:05:16;0.00;99.90
2407;DHT22;37709;53.480;9.688;2023-03-07T18:07:48;-0.10;99.90
2407;DHT22;37709;53.480;9.688;2023-03-07T18:10:17;-0.20;99.90
2407;DHT22;37709;53.480;9.688;2023-03-07T18:12:45;-0.20;99.90
2407;DHT22;37709;53.480;9.688;2023-03-07T18:15:14;-0.30;99.90
2407;DHT22;37709;53.480;9.688;2023-03-07T18:17:43;-0.40;99.90
2407;DHT22;37709;53.480;9.688;2023-03-07T18:20:17;-0.40;99.90
2407;DHT22;37709;53.480;9.688;2023-03-07T18:22:45;-0.50;99.90
2407;DHT22;37709;53.480;9.688;2023-03-07T18:25:13;-0.50;99.90
2407;DHT22;37709;53.480;9.688;2023-03-07T18:27:45;-0.60;99.90
2407;DHT22;37709;53.480;9.688;2023-03-07T18:30:13;-0.70;99.90
2407;DHT22;37709;53.480;9.688;2023-03-07T18:32:40;-0.60;99.90